createdAt,value
2019-01-22T00:02:20.461Z,16.50
2019-01-22T00:04:50.889Z,15.93
2019-01-22T00:07:23.597Z,16.90
2019-01-22T00:09:53.853Z,16.20
2019-01-22T00:12:24.286Z,16.27
2019-01-22T00:14:54.842Z,16.57
2019-01-22T00:17:25.637Z,16.73
2019-01-22T00:19:56.598Z,17.37
2019-01-22T00:22:26.919Z,16.33
2019-01-22T00:24:57.327Z,17.27
2019-01-22T00:27:28.169Z,16.37
2019-01-22T00:29:58.402Z,16.50
2019-01-22T00:32:28.883Z,17.80
2019-01-22T00:34:59.322Z,17.03
2019-01-22T00:37:31.177Z,16.40
2019-01-22T00:40:02.088Z,16.03
2019-01-22T00:42:32.932Z,15.70
2019-01-22T00:45:03.294Z,17.23
2019-01-22T00:47:33.768Z,17.17
2019-01-22T00:50:05.378Z,16.90
2019-01-22T00:52:35.838Z,15.67
2019-01-22T00:55:08.091Z,16.57
2019-01-22T00:57:39.247Z,17.03
2019-01-22T01:00:14.987Z,16.63
2019-01-22T01:02:45.590Z,16.63
2019-01-22T01:05:16.360Z,17.40
2019-01-22T01:07:47.364Z,15.70
2019-01-22T01:10:18.345Z,15.70
2019-01-22T01:12:49.157Z,16.23
2019-01-22T01:15:19.789Z,17.37
2019-01-22T01:17:50.199Z,16.13
2019-01-22T01:20:21.937Z,17.37
2019-01-22T01:22:52.578Z,15.47
2019-01-22T01:25:24.272Z,15.17
2019-01-22T01:27:55.346Z,15.50
2019-01-22T01:30:27.708Z,15.57
2019-01-22T01:32:58.067Z,14.63
2019-01-22T01:35:28.403Z,16.80
2019-01-22T01:37:59.027Z,16.00
2019-01-22T01:40:29.543Z,15.90
2019-01-22T01:43:00.353Z,16.40
2019-01-22T01:45:30.989Z,15.90
2019-01-22T01:48:01.377Z,16.07
2019-01-22T01:50:31.934Z,17.40
2019-01-22T01:53:02.346Z,16.27
2019-01-22T01:55:32.660Z,16.23
2019-01-22T01:58:03.872Z,15.97
2019-01-22T02:00:34.563Z,15.27
2019-01-22T02:03:05.105Z,14.87
2019-01-22T02:05:35.536Z,15.80
2019-01-22T02:08:06.343Z,14.83
2019-01-22T02:10:36.803Z,15.60
2019-01-22T02:13:19.653Z,15.03
2019-01-22T02:16:19.981Z,12.90
2019-01-22T02:19:16.807Z,13.70
2019-01-22T02:22:26.477Z,14.90
2019-01-22T02:25:18.648Z,15.30
2019-01-22T02:28:54.509Z,14.50
2019-01-22T02:32:17.749Z,14.40
2019-01-22T02:35:14.391Z,15.30
2019-01-22T02:38:38.495Z,15.30
2019-01-22T02:41:33.573Z,15.40
2019-01-22T02:44:43.420Z,14.87
2019-01-22T02:47:38.599Z,13.87
2019-01-22T02:50:48.200Z,15.10
2019-01-22T02:53:38.664Z,14.93
2019-01-22T02:56:42.770Z,15.93
2019-01-22T02:59:45.067Z,13.30
2019-01-22T03:02:48.654Z,14.77
2019-01-22T03:05:49.885Z,13.87
2019-01-22T03:08:52.479Z,14.90
2019-01-22T03:11:50.695Z,13.37
2019-01-22T03:15:09.952Z,14.50
2019-01-22T03:18:17.663Z,13.83
2019-01-22T03:21:29.802Z,12.80
2019-01-22T03:24:49.844Z,13.97
2019-01-22T03:28:03.502Z,14.30
2019-01-22T03:30:52.373Z,14.80
2019-01-22T03:33:52.343Z,14.13
2019-01-22T03:36:53.268Z,12.23
2019-01-22T03:39:57.322Z,13.87
2019-01-22T03:43:05.473Z,12.20
2019-01-22T03:46:01.233Z,13.33
2019-01-22T03:49:10.204Z,13.23
2019-01-22T03:52:03.425Z,12.87
2019-01-22T03:55:13.928Z,12.67
2019-01-22T03:57:50.085Z,12.83
2019-01-22T04:00:44.723Z,14.10
2019-01-22T04:03:15.317Z,13.40
2019-01-22T04:05:48.090Z,13.20
2019-01-22T04:08:18.758Z,14.50
2019-01-22T04:11:28.861Z,12.93
2019-01-22T04:13:59.649Z,12.50
2019-01-22T04:16:30.006Z,13.97
2019-01-22T04:19:00.394Z,13.20
2019-01-22T04:21:35.698Z,12.83
2019-01-22T04:24:33.610Z,12.73
2019-01-22T04:27:38.931Z,11.77
2019-01-22T04:30:52.995Z,11.93
2019-01-22T04:34:03.067Z,11.00
2019-01-22T04:37:15.313Z,10.50
2019-01-22T04:40:09.444Z,10.70
2019-01-22T04:43:16.726Z,11.90
2019-01-22T04:46:01.637Z,11.23
2019-01-22T04:49:13.945Z,11.13
2019-01-22T04:52:02.333Z,10.80
2019-01-22T04:54:57.489Z,9.40
2019-01-22T04:57:53.736Z,9.30
2019-01-22T05:00:55.626Z,9.73
2019-01-22T05:04:15.075Z,9.50
2019-01-22T05:07:28.364Z,9.13
2019-01-22T05:10:35.727Z,9.60
2019-01-22T05:13:12.052Z,8.60
2019-01-22T05:16:27.999Z,8.30
2019-01-22T05:19:23.574Z,9.17
2019-01-22T05:22:23.030Z,9.13
2019-01-22T05:25:27.822Z,8.63
2019-01-22T05:28:46.746Z,8.53
2019-01-22T05:31:47.676Z,8.13
2019-01-22T05:35:01.734Z,8.33
2019-01-22T05:38:12.686Z,7.80
2019-01-22T05:41:10.981Z,6.63
2019-01-22T05:44:01.322Z,7.30
2019-01-22T05:47:11.344Z,7.53
2019-01-22T05:49:54.470Z,8.10
2019-01-22T05:53:08.185Z,8.60
2019-01-22T05:55:41.640Z,8.60
2019-01-22T05:59:01.692Z,9.10
2019-01-22T06:01:56.829Z,8.00
2019-01-22T06:05:02.854Z,8.57
2019-01-22T06:08:25.937Z,9.07
2019-01-22T06:11:52.290Z,7.87
2019-01-22T06:14:46.595Z,7.50
2019-01-22T06:18:03.219Z,9.00
2019-01-22T06:21:10.815Z,7.33
2019-01-22T06:24:07.601Z,7.70
2019-01-22T06:27:06.576Z,7.70
2019-01-22T06:30:26.381Z,7.27
2019-01-22T06:33:20.654Z,7.87
2019-01-22T06:36:29.120Z,8.00
2019-01-22T06:39:45.043Z,8.10
2019-01-22T06:42:42.268Z,8.00
2019-01-22T06:46:05.929Z,8.93
2019-01-22T06:49:04.486Z,7.60
2019-01-22T06:52:39.838Z,9.63
2019-01-22T06:55:21.323Z,9.00
2019-01-22T06:58:26.849Z,8.70
2019-01-22T07:01:41.413Z,9.50
2019-01-22T07:04:39.927Z,8.67
2019-01-22T07:08:01.986Z,8.83
2019-01-22T07:11:20.075Z,8.03
2019-01-22T07:14:30.356Z,9.17
2019-01-22T07:17:48.839Z,7.70
2019-01-22T07:21:08.255Z,8.97
2019-01-22T07:24:32.520Z,7.70
2019-01-22T07:27:56.231Z,8.50
2019-01-22T07:31:32.469Z,8.83
2019-01-22T07:34:47.655Z,8.07
2019-01-22T07:37:42.757Z,9.07
2019-01-22T07:40:57.680Z,7.93
2019-01-22T07:43:59.532Z,8.93
2019-01-22T07:47:14.744Z,7.97
2019-01-22T07:50:36.889Z,9.53
2019-01-22T07:53:21.066Z,8.37
2019-01-22T07:56:30.907Z,8.60
2019-01-22T07:59:11.574Z,8.50
2019-01-22T08:02:08.501Z,9.20
2019-01-22T08:05:40.948Z,8.90
2019-01-22T08:08:35.176Z,8.97
2019-01-22T08:11:48.711Z,9.20
2019-01-22T08:14:40.063Z,8.90
2019-01-22T08:17:28.588Z,9.10
2019-01-22T08:20:28.016Z,8.30
2019-01-22T08:23:22.849Z,8.97
2019-01-22T08:26:22.874Z,9.10
2019-01-22T08:29:40.558Z,8.60
2019-01-22T08:32:43.978Z,8.87
2019-01-22T08:35:54.192Z,10.30
2019-01-22T08:38:49.889Z,9.70
2019-01-22T08:41:50.383Z,9.93
2019-01-22T08:44:56.945Z,10.30
2019-01-22T08:47:54.302Z,10.13
2019-01-22T08:50:37.993Z,9.87
2019-01-22T08:53:39.306Z,9.07
2019-01-22T08:56:34.789Z,9.20
2019-01-22T08:59:37.330Z,9.77
2019-01-22T09:02:48.230Z,8.87
2019-01-22T09:05:51.209Z,9.10
2019-01-22T09:08:45.765Z,9.20
2019-01-22T09:12:05.542Z,10.50
2019-01-22T09:15:11.268Z,9.60
2019-01-22T09:18:14.274Z,10.27
2019-01-22T09:20:58.451Z,11.90
2019-01-22T09:24:03.059Z,11.83
2019-01-22T09:27:18.037Z,10.30
2019-01-22T09:30:47.518Z,9.63
2019-01-22T09:33:53.382Z,9.13
2019-01-22T09:36:57.941Z,7.40
2019-01-22T09:39:28.349Z,7.90
2019-01-22T09:41:58.764Z,6.80
2019-01-22T09:44:31.442Z,6.13
2019-01-22T09:47:05.789Z,5.40
2019-01-22T09:49:33.706Z,6.60
2019-01-22T09:52:04.887Z,5.87
2019-01-22T09:54:35.226Z,6.37
2019-01-22T09:57:17.824Z,6.33
2019-01-22T09:59:48.508Z,5.43
2019-01-22T10:02:19.283Z,6.70
2019-01-22T10:04:49.708Z,5.77
2019-01-22T10:07:20.239Z,6.43
2019-01-22T10:09:50.499Z,5.63
2019-01-22T10:12:21.380Z,5.77
2019-01-22T10:14:52.973Z,5.40
2019-01-22T10:17:23.314Z,5.70
2019-01-22T10:19:54.245Z,6.00
2019-01-22T10:22:26.087Z,4.97
2019-01-22T10:24:56.794Z,5.83
2019-01-22T10:27:29.465Z,5.60
2019-01-22T10:30:01.009Z,6.00
2019-01-22T10:32:31.672Z,6.17
2019-01-22T10:35:04.419Z,6.00
2019-01-22T10:37:37.441Z,5.50
2019-01-22T10:40:12.100Z,5.60
2019-01-22T10:42:42.622Z,5.67
2019-01-22T10:45:15.213Z,6.00
2019-01-22T10:47:45.625Z,5.47
2019-01-22T10:50:18.352Z,5.03
2019-01-22T10:52:48.764Z,5.97
2019-01-22T10:55:21.418Z,5.80
2019-01-22T10:57:51.941Z,5.83
2019-01-22T11:00:26.179Z,6.03
2019-01-22T11:02:57.072Z,5.50
2019-01-22T11:05:30.674Z,6.23
2019-01-22T11:08:01.170Z,5.30
2019-01-22T11:10:32.117Z,6.13
2019-01-22T11:13:04.727Z,5.57
2019-01-22T11:15:35.158Z,4.53
2019-01-22T11:18:06.385Z,4.70
2019-01-22T11:20:36.694Z,4.20
2019-01-22T11:23:07.388Z,5.23
2019-01-22T11:25:43.482Z,4.80
2019-01-22T11:28:10.242Z,5.43
2019-01-22T11:30:40.462Z,5.40
2019-01-22T11:33:11.698Z,4.60
2019-01-22T11:35:42.825Z,4.00
2019-01-22T11:38:13.117Z,4.90
2019-01-22T11:40:47.533Z,4.80
2019-01-22T11:43:18.074Z,4.50
2019-01-22T11:45:48.296Z,5.70
2019-01-22T11:48:18.768Z,5.20
2019-01-22T11:50:49.674Z,5.83
2019-01-22T11:53:20.183Z,5.60
2019-01-22T11:55:50.803Z,4.63
2019-01-22T11:58:21.252Z,4.60
2019-01-22T12:01:03.057Z,5.23
2019-01-22T12:03:33.546Z,5.90
2019-01-22T12:06:10.610Z,5.40
2019-01-22T12:08:41.399Z,6.40
2019-01-22T12:11:17.418Z,5.77
2019-01-22T12:13:53.833Z,6.87
2019-01-22T12:16:19.719Z,6.00
2019-01-22T12:18:50.285Z,6.37
2019-01-22T12:21:23.635Z,6.17
2019-01-22T12:23:54.261Z,5.93
2019-01-22T12:26:26.464Z,7.03
2019-01-22T12:28:56.886Z,6.10
2019-01-22T12:31:27.130Z,7.47
2019-01-22T12:33:57.176Z,6.17
2019-01-22T12:36:30.374Z,6.30
2019-01-22T12:39:01.002Z,6.67
2019-01-22T12:41:31.615Z,6.80
2019-01-22T12:44:04.085Z,7.70
2019-01-22T12:46:34.589Z,6.50
2019-01-22T12:49:05.333Z,6.37
2019-01-22T12:51:37.835Z,6.57
2019-01-22T12:54:08.329Z,7.00
2019-01-22T12:56:38.939Z,6.50
2019-01-22T12:59:09.026Z,5.87
2019-01-22T13:01:39.599Z,6.97
2019-01-22T13:04:10.666Z,6.63
2019-01-22T13:06:41.050Z,6.50
2019-01-22T13:09:11.203Z,7.03
2019-01-22T13:11:41.922Z,6.90
2019-01-22T13:14:16.224Z,7.40
2019-01-22T13:16:45.659Z,6.77
2019-01-22T13:19:19.546Z,6.70
2019-01-22T13:21:50.149Z,6.97
2019-01-22T13:24:21.615Z,7.47
2019-01-22T13:26:52.293Z,6.17
2019-01-22T13:29:37.434Z,6.23
2019-01-22T13:32:10.010Z,7.30
2019-01-22T13:34:42.317Z,6.77
2019-01-22T13:37:16.856Z,6.90
2019-01-22T13:39:50.185Z,7.43
2019-01-22T13:42:25.586Z,6.53
2019-01-22T13:44:58.453Z,7.57
2019-01-22T13:47:38.213Z,8.00
2019-01-22T13:50:11.868Z,7.27
2019-01-22T13:52:43.006Z,7.73
2019-01-22T13:55:29.706Z,7.10
2019-01-22T13:58:08.894Z,7.33
2019-01-22T14:00:42.821Z,7.40
2019-01-22T14:03:13.750Z,7.13
2019-01-22T14:05:45.235Z,7.90
2019-01-22T14:08:16.252Z,7.33
2019-01-22T14:10:48.613Z,8.30
2019-01-22T14:13:21.198Z,8.03
2019-01-22T14:15:54.945Z,8.40
2019-01-22T14:18:31.546Z,8.00
2019-01-22T14:21:01.790Z,9.73
2019-01-22T14:23:41.989Z,8.17
2019-01-22T14:26:12.286Z,9.40
2019-01-22T14:28:44.102Z,9.20
2019-01-22T14:31:27.000Z,8.77
2019-01-22T14:33:57.409Z,8.33
2019-01-22T14:36:30.795Z,9.47
2019-01-22T14:39:05.926Z,9.00
2019-01-22T14:41:36.309Z,9.40
2019-01-22T14:44:06.787Z,9.47
2019-01-22T14:46:42.847Z,9.50
2019-01-22T14:49:15.978Z,9.10
2019-01-22T14:51:46.675Z,9.10
2019-01-22T14:54:18.708Z,10.30
2019-01-22T14:56:52.613Z,9.17
2019-01-22T14:59:32.281Z,8.90
2019-01-22T15:02:03.918Z,10.30
2019-01-22T15:04:40.381Z,8.93
2019-01-22T15:07:12.799Z,9.60
2019-01-22T15:09:52.754Z,10.23
2019-01-22T15:12:29.738Z,10.67
2019-01-22T15:15:00.708Z,10.10
2019-01-22T15:17:31.078Z,9.40
2019-01-22T15:20:01.994Z,9.97
2019-01-22T15:22:32.778Z,8.97
2019-01-22T15:25:03.103Z,9.30
2019-01-22T15:27:33.782Z,10.50
2019-01-22T15:30:05.213Z,10.80
2019-01-22T15:32:36.152Z,11.00
2019-01-22T15:35:08.681Z,10.90
2019-01-22T15:37:41.655Z,11.40
2019-01-22T15:40:16.707Z,12.00
2019-01-22T15:42:51.572Z,10.70
2019-01-22T15:45:22.056Z,11.30
2019-01-22T15:47:54.282Z,11.87
2019-01-22T15:50:24.629Z,11.00
2019-01-22T15:52:55.405Z,11.37
2019-01-22T15:55:39.740Z,15.20
2019-01-22T15:58:10.441Z,13.87
2019-01-22T16:00:44.791Z,13.10
2019-01-22T16:03:21.376Z,12.60
2019-01-22T16:05:52.861Z,12.63
2019-01-22T16:08:27.381Z,12.00
2019-01-22T16:10:57.918Z,11.20
2019-01-22T16:13:28.106Z,11.10
2019-01-22T16:16:03.459Z,11.20
2019-01-22T16:18:34.178Z,12.00
2019-01-22T16:21:04.470Z,11.87
2019-01-22T16:23:35.573Z,11.20
2019-01-22T16:26:06.111Z,11.70
2019-01-22T16:28:39.184Z,11.37
2019-01-22T16:31:11.260Z,11.20
2019-01-22T16:33:47.263Z,12.13
2019-01-22T16:36:21.038Z,10.93
2019-01-22T16:38:55.003Z,11.40
2019-01-22T16:41:32.277Z,11.80
2019-01-22T16:44:02.973Z,12.07
2019-01-22T16:46:43.998Z,11.57
2019-01-22T16:49:14.450Z,12.23
2019-01-22T16:51:44.989Z,12.23
2019-01-22T16:54:15.622Z,11.77
2019-01-22T16:56:49.381Z,12.50
2019-01-22T16:59:21.696Z,11.43
2019-01-22T17:01:52.837Z,12.03
2019-01-22T17:04:23.349Z,12.60
2019-01-22T17:07:00.771Z,10.50
2019-01-22T17:09:32.677Z,14.40
2019-01-22T17:12:03.104Z,13.03
2019-01-22T17:14:33.876Z,12.30
2019-01-22T17:17:05.665Z,11.10
2019-01-22T17:19:45.254Z,12.10
2019-01-22T17:22:15.712Z,12.03
2019-01-22T17:24:46.103Z,11.80
2019-01-22T17:27:17.898Z,11.27
2019-01-22T17:29:48.605Z,12.73
2019-01-22T17:32:37.384Z,12.50
2019-01-22T17:35:14.594Z,12.60
2019-01-22T17:37:45.346Z,13.57
2019-01-22T17:40:16.465Z,12.13
2019-01-22T17:42:47.827Z,12.17
2019-01-22T17:45:20.131Z,12.70
2019-01-22T17:47:50.393Z,12.50
2019-01-22T17:50:22.105Z,12.10
2019-01-22T17:53:00.119Z,12.67
2019-01-22T17:55:35.385Z,12.30
2019-01-22T17:58:11.021Z,11.60
2019-01-22T18:00:41.860Z,12.73
2019-01-22T18:03:15.901Z,11.67
2019-01-22T18:05:46.301Z,11.97
2019-01-22T18:08:18.350Z,12.23
2019-01-22T18:10:49.539Z,12.03
2019-01-22T18:13:23.849Z,12.60
2019-01-22T18:15:54.457Z,12.40
2019-01-22T18:18:26.826Z,10.87
2019-01-22T18:20:57.443Z,11.90
2019-01-22T18:23:28.373Z,11.90
2019-01-22T18:25:58.977Z,11.20
2019-01-22T18:28:29.617Z,12.27
2019-01-22T18:31:04.550Z,10.77
2019-01-22T18:33:35.348Z,15.93
2019-01-22T18:36:08.856Z,12.20
2019-01-22T18:38:39.229Z,12.73
2019-01-22T18:41:13.527Z,12.67
2019-01-22T18:43:44.513Z,10.93
2019-01-22T18:46:15.500Z,10.63
2019-01-22T18:48:59.511Z,10.27
2019-01-22T18:51:31.435Z,11.60
2019-01-22T18:54:06.714Z,11.60
2019-01-22T18:56:40.290Z,10.40
2019-01-22T18:59:11.818Z,12.83
2019-01-22T19:01:44.538Z,10.70
2019-01-22T19:04:17.574Z,11.73
2019-01-22T19:06:54.008Z,11.33
2019-01-22T19:09:31.534Z,11.27
2019-01-22T19:12:11.564Z,12.43
2019-01-22T19:14:46.460Z,11.00
2019-01-22T19:17:18.437Z,11.93
2019-01-22T19:19:58.372Z,11.47
2019-01-22T19:22:31.476Z,13.20
2019-01-22T19:25:03.796Z,11.73
2019-01-22T19:27:36.636Z,12.40
2019-01-22T19:30:10.994Z,11.70
2019-01-22T19:32:44.568Z,11.83
2019-01-22T19:35:17.422Z,12.30
2019-01-22T19:37:49.749Z,11.17
2019-01-22T19:40:23.109Z,12.30
2019-01-22T19:42:54.114Z,12.90
2019-01-22T19:45:36.163Z,11.93
2019-01-22T19:48:11.475Z,12.00
2019-01-22T19:51:08.771Z,11.27
2019-01-22T19:53:42.548Z,11.10
2019-01-22T19:56:21.425Z,11.07
2019-01-22T19:58:57.429Z,11.40
2019-01-22T20:01:42.479Z,11.93
2019-01-22T20:04:17.819Z,11.73
2019-01-22T20:07:00.256Z,11.80
2019-01-22T20:09:36.957Z,10.97
2019-01-22T20:12:12.365Z,12.63
2019-01-22T20:14:43.357Z,11.23
2019-01-22T20:17:14.201Z,10.77
2019-01-22T20:19:45.397Z,11.87
2019-01-22T20:22:18.024Z,10.70
2019-01-22T20:24:53.376Z,12.67
2019-01-22T20:27:23.647Z,10.63
2019-01-22T20:29:58.059Z,11.47
2019-01-22T20:32:30.141Z,12.03
2019-01-22T20:35:01.167Z,12.13
2019-01-22T20:37:31.662Z,10.13
2019-01-22T20:40:06.462Z,12.17
2019-01-22T20:42:37.066Z,12.37
2019-01-22T20:45:12.273Z,12.67
2019-01-22T20:47:43.172Z,11.90
2019-01-22T20:50:18.998Z,11.70
2019-01-22T20:52:46.176Z,11.90
2019-01-22T20:55:18.366Z,14.07
2019-01-22T20:57:54.665Z,13.17
2019-01-22T21:00:22.822Z,11.27
2019-01-22T21:02:55.565Z,11.57
2019-01-22T21:05:33.337Z,11.83
2019-01-22T21:08:08.093Z,11.57
2019-01-22T21:10:47.556Z,11.20
2019-01-22T21:13:18.620Z,12.43
2019-01-22T21:15:51.821Z,11.93
2019-01-22T21:18:22.202Z,11.87
2019-01-22T21:20:54.093Z,11.57
2019-01-22T21:23:24.864Z,12.50
2019-01-22T21:25:55.702Z,11.33
2019-01-22T21:28:27.739Z,13.03
2019-01-22T21:31:00.329Z,11.53
2019-01-22T21:33:35.892Z,12.87
2019-01-22T21:36:06.792Z,11.17
2019-01-22T21:38:38.421Z,11.57
2019-01-22T21:41:08.750Z,13.03
2019-01-22T21:43:41.108Z,11.40
2019-01-22T21:46:13.173Z,12.03
2019-01-22T21:48:43.958Z,13.47
2019-01-22T21:51:14.158Z,12.63
2019-01-22T21:53:44.770Z,11.03
2019-01-22T21:56:15.419Z,12.97
2019-01-22T21:58:45.744Z,13.83
2019-01-22T22:01:16.704Z,12.10
2019-01-22T22:03:47.861Z,12.47
2019-01-22T22:06:18.134Z,12.00
2019-01-22T22:08:48.556Z,12.60
2019-01-22T22:11:20.277Z,13.53
2019-01-22T22:13:50.637Z,12.37
2019-01-22T22:16:21.369Z,12.90
2019-01-22T22:18:54.153Z,12.40
2019-01-22T22:21:26.094Z,12.33
2019-01-22T22:23:56.544Z,11.30
2019-01-22T22:26:27.435Z,12.23
2019-01-22T22:28:59.612Z,11.43
2019-01-22T22:31:32.679Z,12.63
2019-01-22T22:34:02.988Z,11.40
2019-01-22T22:36:34.877Z,13.70
2019-01-22T22:39:08.159Z,11.90
2019-01-22T22:41:41.078Z,13.20
2019-01-22T22:44:12.021Z,12.53
2019-01-22T22:46:43.871Z,13.27
2019-01-22T22:49:16.757Z,11.43
2019-01-22T22:51:47.384Z,12.97
2019-01-22T22:54:17.566Z,12.40
2019-01-22T22:56:48.442Z,12.70
2019-01-22T22:59:19.085Z,12.97
2019-01-22T23:01:49.566Z,12.53
2019-01-22T23:04:21.908Z,13.30
2019-01-22T23:06:52.597Z,12.33
2019-01-22T23:09:23.071Z,13.90
2019-01-22T23:11:54.034Z,12.90
2019-01-22T23:14:28.022Z,12.97
2019-01-22T23:16:58.804Z,11.97
2019-01-22T23:19:29.557Z,13.17
2019-01-22T23:21:59.947Z,13.33
2019-01-22T23:24:30.527Z,12.90
2019-01-22T23:27:02.516Z,13.03
2019-01-22T23:29:36.878Z,13.13
2019-01-22T23:32:12.382Z,13.33
2019-01-22T23:34:43.094Z,13.83
2019-01-22T23:37:13.787Z,13.17
2019-01-22T23:39:44.240Z,12.60
2019-01-22T23:42:15.050Z,14.03
2019-01-22T23:44:45.477Z,12.00
2019-01-22T23:47:15.806Z,12.73
2019-01-22T23:49:46.182Z,13.50
2019-01-22T23:52:16.570Z,13.47
2019-01-22T23:54:47.668Z,14.10
2019-01-22T23:57:18.847Z,13.40
2019-01-22T23:59:49.358Z,13.27
